createdAt,value
2019-03-08T00:02:07.485Z,60.54
2019-03-08T00:04:34.592Z,61.13
2019-03-08T00:07:01.450Z,60.71
2019-03-08T00:09:28.520Z,60.98
2019-03-08T00:11:55.604Z,60.96
2019-03-08T00:14:23.661Z,61.23
2019-03-08T00:16:50.395Z,61.07
2019-03-08T00:19:17.371Z,60.98
2019-03-08T00:21:45.254Z,60.71
2019-03-08T00:24:12.259Z,60.62
2019-03-08T00:26:39.253Z,60.63
2019-03-08T00:29:10.592Z,60.66
2019-03-08T00:32:05.283Z,60.61
2019-03-08T00:34:36.383Z,61.15
2019-03-08T00:37:03.173Z,61.48
2019-03-08T00:39:30.429Z,60.81
2019-03-08T00:41:57.289Z,61.15
2019-03-08T00:44:24.367Z,61.05
2019-03-08T00:46:51.389Z,60.76
2019-03-08T00:49:18.322Z,60.61
2019-03-08T00:51:50.530Z,61.27
2019-03-08T00:54:17.471Z,61.10
2019-03-08T00:56:44.850Z,60.82
2019-03-08T00:59:11.845Z,60.34
2019-03-08T01:01:38.607Z,60.01
2019-03-08T01:04:07.670Z,59.59
2019-03-08T01:06:34.721Z,59.56
2019-03-08T01:09:04.748Z,59.31
2019-03-08T01:11:32.909Z,59.01
2019-03-08T01:14:01.697Z,58.86
2019-03-08T01:16:28.498Z,58.55
2019-03-08T01:18:55.804Z,58.61
2019-03-08T01:21:22.895Z,58.61
2019-03-08T01:23:50.159Z,58.33
2019-03-08T01:26:17.839Z,58.40
2019-03-08T01:28:45.645Z,58.26
2019-03-08T01:31:13.013Z,58.30
2019-03-08T01:33:40.215Z,58.10
2019-03-08T01:36:08.186Z,58.03
2019-03-08T01:38:35.114Z,58.06
2019-03-08T01:41:01.991Z,57.92
2019-03-08T01:43:28.888Z,57.87
2019-03-08T01:45:56.525Z,57.66
2019-03-08T01:48:31.478Z,57.45
2019-03-08T01:51:03.944Z,57.33
2019-03-08T01:53:42.641Z,57.37
2019-03-08T01:56:14.084Z,57.41
2019-03-08T01:58:40.970Z,57.32
2019-03-08T02:01:07.882Z,57.33
2019-03-08T02:03:34.784Z,57.15
2019-03-08T02:06:02.208Z,56.99
2019-03-08T02:08:29.328Z,56.87
2019-03-08T02:10:56.900Z,56.67
2019-03-08T02:13:23.785Z,56.52
2019-03-08T02:15:51.732Z,56.48
2019-03-08T02:18:19.486Z,56.35
2019-03-08T02:20:46.265Z,56.42
2019-03-08T02:23:13.579Z,56.29
2019-03-08T02:25:40.704Z,56.17
2019-03-08T02:28:10.078Z,56.39
2019-03-08T02:30:36.990Z,57.87
2019-03-08T02:33:03.992Z,61.13
2019-03-08T02:35:30.870Z,63.78
2019-03-08T02:37:57.753Z,66.33
2019-03-08T02:40:32.664Z,66.86
2019-03-08T02:43:01.820Z,66.88
2019-03-08T02:45:28.866Z,66.60
2019-03-08T02:47:55.919Z,67.97
2019-03-08T02:50:23.610Z,68.21
2019-03-08T02:52:50.752Z,68.26
2019-03-08T02:55:17.740Z,68.09
2019-03-08T02:57:44.917Z,68.41
2019-03-08T03:00:14.290Z,70.27
2019-03-08T03:02:41.921Z,69.10
2019-03-08T03:05:09.142Z,69.53
2019-03-08T03:07:35.922Z,69.50
2019-03-08T03:10:05.887Z,69.86
2019-03-08T03:12:34.997Z,69.35
2019-03-08T03:15:02.702Z,69.25
2019-03-08T03:17:29.472Z,69.78
2019-03-08T03:19:59.193Z,70.22
2019-03-08T03:22:25.980Z,70.39
2019-03-08T03:24:52.851Z,70.72
2019-03-08T03:27:19.687Z,69.93
2019-03-08T03:29:47.120Z,70.44
2019-03-08T03:32:14.342Z,70.13
2019-03-08T03:34:41.699Z,70.88
2019-03-08T03:37:08.896Z,70.52
2019-03-08T03:39:35.686Z,70.13
2019-03-08T03:42:03.231Z,70.78
2019-03-08T03:44:30.029Z,69.68
2019-03-08T03:46:57.120Z,69.84
2019-03-08T03:49:24.145Z,69.76
2019-03-08T03:51:51.086Z,68.91
2019-03-08T03:54:17.981Z,69.95
2019-03-08T03:56:44.837Z,69.61
2019-03-08T03:59:11.717Z,69.95
2019-03-08T04:01:40.350Z,69.25
2019-03-08T04:04:07.881Z,69.50
2019-03-08T04:06:34.637Z,69.24
2019-03-08T04:09:01.758Z,69.32
2019-03-08T04:11:28.513Z,68.85
2019-03-08T04:13:55.715Z,69.12
2019-03-08T04:16:22.683Z,68.96
2019-03-08T04:18:49.445Z,68.83
2019-03-08T04:21:16.523Z,68.54
2019-03-08T04:23:43.349Z,69.21
2019-03-08T04:26:10.111Z,68.75
2019-03-08T04:28:36.879Z,68.91
2019-03-08T04:31:03.847Z,68.86
2019-03-08T04:33:30.798Z,68.25
2019-03-08T04:35:57.643Z,68.36
2019-03-08T04:38:24.443Z,68.21
2019-03-08T04:40:51.526Z,68.59
2019-03-08T04:43:18.320Z,68.31
2019-03-08T04:45:45.628Z,68.07
2019-03-08T04:48:12.387Z,68.41
2019-03-08T04:50:39.355Z,67.86
2019-03-08T04:53:06.378Z,67.59
2019-03-08T04:55:33.615Z,67.25
2019-03-08T04:58:03.519Z,66.96
2019-03-08T05:00:30.393Z,67.27
2019-03-08T05:02:57.189Z,67.48
2019-03-08T05:05:23.995Z,67.61
2019-03-08T05:07:50.966Z,67.60
2019-03-08T05:10:19.941Z,67.46
2019-03-08T05:12:47.054Z,67.50
2019-03-08T05:15:15.084Z,67.32
2019-03-08T05:17:42.190Z,67.27
2019-03-08T05:20:10.201Z,67.54
2019-03-08T05:22:37.428Z,67.78
2019-03-08T05:25:11.758Z,67.20
2019-03-08T05:27:38.574Z,66.67
2019-03-08T05:30:10.887Z,66.33
2019-03-08T05:32:37.672Z,66.34
2019-03-08T05:35:07.004Z,66.18
2019-03-08T05:37:33.961Z,66.42
2019-03-08T05:40:00.814Z,66.14
2019-03-08T05:42:27.673Z,66.36
2019-03-08T05:44:55.720Z,66.57
2019-03-08T05:47:22.489Z,66.74
2019-03-08T05:49:49.625Z,66.24
2019-03-08T05:52:16.763Z,66.01
2019-03-08T05:54:44.070Z,65.66
2019-03-08T05:57:11.176Z,65.82
2019-03-08T05:59:38.474Z,65.77
2019-03-08T06:02:05.318Z,66.01
2019-03-08T06:04:32.347Z,65.98
2019-03-08T06:06:59.133Z,65.74
2019-03-08T06:09:26.140Z,65.28
2019-03-08T06:11:52.913Z,65.24
2019-03-08T06:14:20.209Z,65.07
2019-03-08T06:16:47.768Z,64.97
2019-03-08T06:19:14.699Z,65.16
2019-03-08T06:21:41.848Z,65.21
2019-03-08T06:24:08.881Z,65.37
2019-03-08T06:26:35.750Z,65.66
2019-03-08T06:29:03.014Z,65.18
2019-03-08T06:31:29.783Z,65.37
2019-03-08T06:33:56.955Z,65.50
2019-03-08T06:36:23.949Z,65.51
2019-03-08T06:38:50.998Z,65.29
2019-03-08T06:41:21.182Z,65.24
2019-03-08T06:43:48.291Z,65.23
2019-03-08T06:46:15.485Z,65.15
2019-03-08T06:48:42.296Z,65.34
2019-03-08T06:51:09.405Z,65.37
2019-03-08T06:53:36.861Z,65.27
2019-03-08T06:56:06.019Z,65.21
2019-03-08T06:58:37.555Z,65.09
2019-03-08T07:01:08.288Z,65.07
2019-03-08T07:03:35.155Z,64.76
2019-03-08T07:06:02.516Z,64.41
2019-03-08T07:08:29.617Z,64.26
2019-03-08T07:10:56.408Z,64.17
2019-03-08T07:13:23.567Z,64.00
2019-03-08T07:15:50.448Z,63.86
2019-03-08T07:18:17.381Z,63.79
2019-03-08T07:20:46.189Z,63.52
2019-03-08T07:23:32.001Z,63.24
2019-03-08T07:26:08.167Z,63.03
2019-03-08T07:28:53.806Z,62.73
2019-03-08T07:31:21.230Z,62.60
2019-03-08T07:33:54.114Z,62.23
2019-03-08T07:36:38.086Z,62.13
2019-03-08T07:39:33.543Z,62.19
2019-03-08T07:42:02.250Z,62.16
2019-03-08T07:44:33.839Z,62.16
2019-03-08T07:47:05.490Z,61.83
2019-03-08T07:49:49.988Z,61.89
2019-03-08T07:52:18.841Z,61.99
2019-03-08T07:55:06.906Z,61.71
2019-03-08T07:58:05.931Z,61.46
2019-03-08T08:00:42.795Z,61.30
2019-03-08T08:03:16.070Z,61.10
2019-03-08T08:06:03.220Z,60.94
2019-03-08T08:08:51.655Z,60.55
2019-03-08T08:11:15.340Z,60.24
2019-03-08T08:13:46.222Z,60.33
2019-03-08T08:16:18.447Z,60.03
2019-03-08T08:19:04.050Z,59.71
2019-03-08T08:21:42.958Z,59.71
2019-03-08T08:24:28.586Z,59.39
2019-03-08T08:26:55.654Z,58.99
2019-03-08T08:29:35.289Z,58.92
2019-03-08T08:32:05.606Z,58.84
2019-03-08T08:34:36.965Z,58.68
2019-03-08T08:37:14.007Z,58.71
2019-03-08T08:39:42.803Z,59.08
2019-03-08T08:42:20.835Z,58.75
2019-03-08T08:44:49.801Z,58.25
2019-03-08T08:47:34.051Z,57.85
2019-03-08T08:50:05.852Z,57.37
2019-03-08T08:52:40.987Z,56.96
2019-03-08T08:55:10.958Z,56.43
2019-03-08T08:57:39.954Z,55.14
2019-03-08T09:00:17.681Z,54.57
2019-03-08T09:02:56.008Z,53.88
2019-03-08T09:05:24.751Z,53.38
2019-03-08T09:07:53.549Z,53.19
2019-03-08T09:10:34.739Z,52.56
2019-03-08T09:13:10.531Z,52.75
2019-03-08T09:15:48.171Z,52.41
2019-03-08T09:18:20.005Z,51.71
2019-03-08T09:20:57.830Z,51.28
2019-03-08T09:23:51.332Z,50.64
2019-03-08T09:26:43.029Z,50.09
2019-03-08T09:29:09.874Z,48.65
2019-03-08T09:31:39.436Z,47.97
2019-03-08T09:34:08.259Z,48.65
2019-03-08T09:36:37.070Z,47.44
2019-03-08T09:39:10.656Z,48.04
2019-03-08T09:41:46.046Z,47.73
2019-03-08T09:44:18.129Z,47.23
2019-03-08T09:46:49.259Z,45.60
2019-03-08T09:49:32.805Z,46.44
2019-03-08T09:52:01.516Z,46.12
2019-03-08T09:54:33.508Z,41.64
2019-03-08T09:57:11.759Z,44.77
2019-03-08T09:59:57.340Z,43.23
2019-03-08T10:02:26.225Z,43.55
2019-03-08T10:04:54.923Z,43.20
2019-03-08T10:07:26.886Z,42.90
2019-03-08T10:10:01.402Z,42.33
2019-03-08T10:12:33.670Z,42.62
2019-03-08T10:15:20.071Z,41.95
2019-03-08T10:17:49.262Z,42.01
2019-03-08T10:20:21.229Z,41.24
2019-03-08T10:23:03.858Z,40.80
2019-03-08T10:25:37.439Z,41.21
2019-03-08T10:28:09.586Z,40.35
2019-03-08T10:30:38.695Z,40.84
2019-03-08T10:33:10.304Z,39.63
2019-03-08T10:35:37.078Z,40.12
2019-03-08T10:38:07.885Z,39.98
2019-03-08T10:40:36.715Z,39.32
2019-03-08T10:43:15.423Z,38.62
2019-03-08T10:45:44.667Z,37.45
2019-03-08T10:48:13.449Z,37.70
2019-03-08T10:50:46.659Z,37.71
2019-03-08T10:53:18.231Z,39.11
2019-03-08T10:55:53.324Z,39.27
2019-03-08T10:58:36.819Z,39.57
2019-03-08T11:01:13.294Z,39.57
2019-03-08T11:03:46.458Z,40.31
2019-03-08T11:06:29.967Z,41.56
2019-03-08T11:08:58.859Z,42.29
2019-03-08T11:11:26.002Z,42.51
2019-03-08T11:13:52.890Z,41.58
2019-03-08T11:16:22.810Z,40.18
2019-03-08T11:18:49.911Z,38.29
2019-03-08T11:21:18.956Z,38.58
2019-03-08T11:23:47.695Z,39.81
2019-03-08T11:26:20.039Z,40.45
2019-03-08T11:29:06.171Z,40.12
2019-03-08T11:31:35.616Z,40.42
2019-03-08T11:34:07.243Z,39.23
2019-03-08T11:36:34.113Z,39.67
2019-03-08T11:39:03.072Z,38.76
2019-03-08T11:41:41.290Z,39.71
2019-03-08T11:44:12.769Z,38.72
2019-03-08T11:46:41.965Z,38.25
2019-03-08T11:49:15.234Z,37.04
2019-03-08T11:51:50.680Z,35.19
2019-03-08T11:54:40.379Z,33.41
2019-03-08T11:57:11.429Z,32.40
2019-03-08T11:59:47.046Z,32.65
2019-03-08T12:02:21.859Z,32.63
2019-03-08T12:04:52.273Z,31.61
2019-03-08T12:07:39.072Z,29.39
2019-03-08T12:10:12.046Z,30.21
2019-03-08T12:15:18.190Z,27.67
2019-03-08T12:18:02.872Z,29.44
2019-03-08T12:20:31.639Z,29.09
2019-03-08T12:23:21.830Z,28.66
2019-03-08T12:25:54.124Z,28.53
2019-03-08T12:28:24.285Z,28.54
2019-03-08T12:30:51.554Z,28.48
2019-03-08T12:33:20.252Z,28.60
2019-03-08T12:35:57.186Z,28.11
2019-03-08T12:38:28.474Z,29.39
2019-03-08T12:41:13.923Z,30.24
2019-03-08T12:43:59.735Z,31.57
2019-03-08T12:46:28.472Z,34.05
2019-03-08T12:48:57.236Z,35.62
2019-03-08T12:51:27.604Z,36.00
2019-03-08T12:53:54.462Z,36.18
2019-03-08T12:56:40.351Z,37.10
2019-03-08T12:59:17.893Z,37.19
2019-03-08T13:01:44.871Z,37.63
2019-03-08T13:04:13.614Z,37.61
2019-03-08T13:06:48.574Z,37.57
2019-03-08T13:09:33.198Z,37.56
2019-03-08T13:11:59.963Z,37.30
2019-03-08T13:14:27.467Z,37.20
2019-03-08T13:16:59.877Z,37.29
2019-03-08T13:19:43.402Z,37.33
2019-03-08T13:22:10.413Z,40.98
2019-03-08T13:24:37.432Z,44.12
2019-03-08T13:27:04.842Z,45.65
2019-03-08T13:29:32.003Z,46.74
2019-03-08T13:31:59.209Z,46.97
2019-03-08T13:34:29.299Z,47.59
2019-03-08T13:36:56.056Z,48.07
2019-03-08T13:39:22.919Z,48.62
2019-03-08T13:41:50.244Z,49.67
2019-03-08T13:44:17.551Z,50.83
2019-03-08T13:46:44.789Z,52.67
2019-03-08T13:49:11.718Z,53.46
2019-03-08T13:51:38.694Z,53.21
2019-03-08T13:54:05.662Z,54.17
2019-03-08T13:56:32.916Z,55.37
2019-03-08T13:58:59.666Z,55.41
2019-03-08T14:01:26.441Z,56.29
2019-03-08T14:03:53.813Z,56.52
2019-03-08T14:06:22.639Z,56.08
2019-03-08T14:08:51.734Z,54.29
2019-03-08T14:11:18.955Z,51.93
2019-03-08T14:13:45.889Z,52.38
2019-03-08T14:16:12.878Z,51.17
2019-03-08T14:18:39.985Z,50.96
2019-03-08T14:21:07.226Z,51.75
2019-03-08T14:23:37.419Z,49.37
2019-03-08T14:26:04.391Z,47.33
2019-03-08T14:28:31.415Z,46.93
2019-03-08T14:30:59.667Z,47.96
2019-03-08T14:33:27.039Z,48.00
2019-03-08T14:35:55.941Z,48.51
2019-03-08T14:38:23.109Z,48.75
2019-03-08T14:40:57.625Z,47.38
2019-03-08T14:43:26.362Z,46.98
2019-03-08T14:45:55.416Z,46.81
2019-03-08T14:48:22.286Z,46.34
2019-03-08T14:50:49.042Z,45.91
2019-03-08T14:53:16.220Z,45.91
2019-03-08T14:55:43.120Z,45.34
2019-03-08T14:58:10.010Z,44.98
2019-03-08T15:00:36.919Z,45.45
2019-03-08T15:03:04.232Z,45.46
2019-03-08T15:05:31.099Z,45.55
2019-03-08T15:08:00.458Z,46.19
2019-03-08T15:10:27.429Z,47.82
2019-03-08T15:12:54.758Z,49.40
2019-03-08T15:15:22.269Z,50.04
2019-03-08T15:17:53.023Z,50.43
2019-03-08T15:20:19.207Z,52.14
2019-03-08T15:22:46.783Z,52.41
2019-03-08T15:25:15.334Z,53.67
2019-03-08T15:27:43.495Z,53.89
2019-03-08T15:30:19.075Z,53.78
2019-03-08T15:32:46.336Z,53.88
2019-03-08T15:35:15.331Z,53.77
2019-03-08T15:37:44.501Z,53.51
2019-03-08T15:40:22.310Z,53.11
2019-03-08T15:42:49.768Z,53.20
2019-03-08T15:45:20.002Z,54.58
2019-03-08T15:47:49.590Z,54.00
2019-03-08T15:50:19.676Z,55.65
2019-03-08T15:52:46.552Z,53.97
2019-03-08T15:55:13.990Z,53.94
2019-03-08T15:57:41.439Z,53.58
2019-03-08T16:00:22.844Z,53.19
2019-03-08T16:02:50.312Z,52.88
2019-03-08T16:05:23.901Z,52.42
2019-03-08T16:07:50.150Z,52.56
2019-03-08T16:10:19.371Z,52.66
2019-03-08T16:12:46.947Z,52.71
2019-03-08T16:15:14.937Z,52.43
2019-03-08T16:17:42.498Z,52.44
2019-03-08T16:20:19.379Z,52.55
2019-03-08T16:22:46.505Z,52.67
2019-03-08T16:25:16.743Z,52.32
2019-03-08T16:27:43.909Z,52.23
2019-03-08T16:30:55.750Z,52.30
2019-03-08T16:36:41.785Z,51.81
2019-03-08T16:39:11.133Z,51.72
2019-03-08T16:41:56.943Z,51.73
2019-03-08T16:44:25.745Z,51.64
2019-03-08T16:47:00.863Z,51.51
2019-03-08T16:49:35.915Z,52.02
2019-03-08T16:52:07.568Z,52.23
2019-03-08T16:54:37.589Z,52.60
2019-03-08T16:57:26.504Z,52.97
2019-03-08T16:59:58.624Z,53.13
2019-03-08T17:02:44.985Z,53.61
2019-03-08T17:05:15.293Z,53.42
2019-03-08T17:07:44.518Z,53.53
2019-03-08T17:10:30.661Z,53.76
2019-03-08T17:13:11.479Z,53.73
2019-03-08T17:15:49.548Z,54.01
2019-03-08T17:18:16.405Z,54.15
2019-03-08T17:21:01.385Z,54.20
2019-03-08T17:23:28.243Z,54.09
2019-03-08T17:26:16.061Z,54.36
2019-03-08T17:28:51.404Z,54.57
2019-03-08T17:31:28.418Z,54.74
2019-03-08T17:33:57.778Z,55.38
2019-03-08T17:36:31.224Z,56.02
2019-03-08T17:39:00.098Z,55.94
2019-03-08T17:41:32.620Z,55.71
2019-03-08T17:44:16.447Z,55.83
2019-03-08T17:47:03.434Z,56.25
2019-03-08T17:49:45.373Z,56.68
2019-03-08T17:52:15.843Z,56.58
2019-03-08T17:54:58.415Z,57.25
2019-03-08T17:57:37.966Z,57.44
2019-03-08T18:00:28.904Z,58.04
2019-03-08T18:03:16.287Z,58.42
2019-03-08T18:05:49.036Z,58.49
2019-03-08T18:08:22.108Z,58.58
2019-03-08T18:10:53.342Z,58.77
2019-03-08T18:13:26.056Z,59.94
2019-03-08T18:16:04.561Z,58.22
2019-03-08T18:18:37.549Z,58.84
2019-03-08T18:21:23.390Z,59.84
2019-03-08T18:23:52.232Z,59.40
2019-03-08T18:26:31.056Z,58.70
2019-03-08T18:29:18.030Z,58.37
2019-03-08T18:31:56.822Z,58.38
2019-03-08T18:34:28.807Z,58.42
2019-03-08T18:36:57.632Z,58.81
2019-03-08T18:39:42.823Z,58.89
2019-03-08T18:42:14.583Z,59.39
2019-03-08T18:44:41.468Z,59.72
2019-03-08T18:47:23.525Z,59.62
2019-03-08T18:49:58.559Z,59.59
2019-03-08T18:52:27.510Z,59.88
2019-03-08T18:54:54.294Z,59.78
2019-03-08T18:57:26.021Z,59.73
2019-03-08T18:59:55.128Z,59.58
2019-03-08T19:02:25.980Z,59.01
2019-03-08T19:04:53.152Z,58.71
2019-03-08T19:07:20.088Z,58.48
2019-03-08T19:09:48.801Z,59.27
2019-03-08T19:12:22.161Z,59.08
2019-03-08T19:14:51.581Z,58.98
2019-03-08T19:17:18.469Z,59.33
2019-03-08T19:19:47.160Z,59.66
2019-03-08T19:22:16.044Z,60.30
2019-03-08T19:24:50.969Z,60.46
2019-03-08T19:27:23.859Z,60.24
2019-03-08T19:30:01.696Z,60.26
2019-03-08T19:32:48.832Z,61.93
2019-03-08T19:35:27.890Z,60.88
2019-03-08T19:38:00.899Z,61.13
2019-03-08T19:40:29.981Z,60.92
2019-03-08T19:43:14.967Z,61.35
2019-03-08T19:45:42.136Z,62.03
2019-03-08T19:48:26.298Z,62.53
2019-03-08T19:50:55.464Z,62.51
2019-03-08T19:53:41.470Z,62.35
2019-03-08T19:56:10.229Z,62.00
2019-03-08T19:58:49.730Z,61.58
2019-03-08T20:01:24.967Z,61.35
2019-03-08T20:03:58.776Z,61.39
2019-03-08T20:06:40.281Z,60.93
2019-03-08T20:09:10.971Z,61.14
2019-03-08T20:11:38.268Z,61.17
2019-03-08T20:14:23.295Z,61.37
2019-03-08T20:17:08.977Z,61.59
2019-03-08T20:19:45.346Z,62.00
2019-03-08T20:22:14.162Z,62.28
2019-03-08T20:24:43.199Z,62.67
2019-03-08T20:27:29.017Z,62.19
2019-03-08T20:30:09.776Z,61.89
2019-03-08T20:32:42.165Z,61.57
2019-03-08T20:35:28.867Z,61.46
2019-03-08T20:38:14.277Z,62.05
2019-03-08T20:40:50.141Z,62.41
2019-03-08T20:43:19.187Z,62.08
2019-03-08T20:45:51.137Z,61.93
2019-03-08T20:48:21.935Z,62.14
2019-03-08T20:50:49.028Z,62.25
2019-03-08T20:53:16.328Z,62.32
2019-03-08T20:55:47.609Z,62.71
2019-03-08T20:58:14.673Z,62.49
2019-03-08T21:00:42.230Z,62.07
2019-03-08T21:03:09.100Z,61.94
2019-03-08T21:05:36.824Z,62.33
2019-03-08T21:08:04.259Z,62.50
2019-03-08T21:10:31.576Z,63.00
2019-03-08T21:12:59.209Z,63.09
2019-03-08T21:15:26.323Z,63.37
2019-03-08T21:17:55.973Z,63.30
2019-03-08T21:20:23.430Z,63.11
2019-03-08T21:22:50.245Z,63.07
2019-03-08T21:25:17.512Z,63.28
2019-03-08T21:27:44.690Z,63.57
2019-03-08T21:30:17.829Z,63.32
2019-03-08T21:32:45.062Z,62.84
2019-03-08T21:35:12.869Z,62.98
2019-03-08T21:37:40.521Z,63.49
2019-03-08T21:40:11.124Z,63.37
2019-03-08T21:42:37.989Z,63.45
2019-03-08T21:45:10.342Z,63.27
2019-03-08T21:47:38.232Z,63.25
2019-03-08T21:50:12.549Z,63.17
2019-03-08T21:52:39.734Z,62.97
2019-03-08T21:55:07.540Z,63.01
2019-03-08T21:57:34.347Z,62.61
2019-03-08T22:00:01.793Z,62.67
2019-03-08T22:02:28.568Z,62.84
2019-03-08T22:04:57.016Z,62.87
2019-03-08T22:07:24.124Z,63.08
2019-03-08T22:10:09.694Z,63.55
2019-03-08T22:12:36.546Z,64.56
2019-03-08T22:15:06.461Z,65.12
2019-03-08T22:17:33.463Z,65.29
2019-03-08T22:20:00.380Z,65.43
2019-03-08T22:22:27.158Z,65.19
2019-03-08T22:24:54.690Z,65.44
2019-03-08T22:27:21.446Z,65.51
2019-03-08T22:29:48.888Z,65.28
2019-03-08T22:32:15.905Z,65.15
2019-03-08T22:34:42.819Z,65.32
2019-03-08T22:37:09.720Z,65.09
2019-03-08T22:39:36.977Z,65.13
2019-03-08T22:42:04.226Z,65.33
2019-03-08T22:44:31.081Z,65.46
2019-03-08T22:46:58.799Z,65.45
2019-03-08T22:49:25.669Z,65.48
2019-03-08T22:51:52.478Z,65.46
2019-03-08T22:54:19.273Z,65.52
2019-03-08T22:56:46.099Z,65.65
2019-03-08T22:59:12.887Z,65.79
2019-03-08T23:01:48.315Z,66.33
2019-03-08T23:04:15.669Z,66.15
2019-03-08T23:06:42.690Z,65.09
2019-03-08T23:09:11.542Z,64.85
2019-03-08T23:11:40.291Z,64.57
2019-03-08T23:14:07.412Z,65.84
2019-03-08T23:16:34.241Z,66.15
2019-03-08T23:19:01.202Z,66.00
2019-03-08T23:21:28.216Z,65.84
2019-03-08T23:23:59.565Z,65.61
2019-03-08T23:26:32.517Z,65.00
2019-03-08T23:29:10.375Z,65.26
2019-03-08T23:31:55.967Z,65.66
2019-03-08T23:34:25.802Z,66.25
2019-03-08T23:36:52.660Z,66.39
2019-03-08T23:39:19.527Z,65.92
2019-03-08T23:41:47.454Z,65.25
2019-03-08T23:44:14.552Z,64.58
2019-03-08T23:46:41.804Z,64.55
2019-03-08T23:49:09.158Z,64.38
2019-03-08T23:51:36.822Z,64.34
2019-03-08T23:54:03.878Z,64.01
2019-03-08T23:56:31.490Z,64.10
2019-03-08T23:58:58.711Z,64.25
